createdAt,value
2023-04-03T00:00:34.188Z,101316.69
2023-04-03T00:03:00.946Z,101321.16
2023-04-03T00:05:27.477Z,101312.25
2023-04-03T00:07:53.846Z,101314.06
2023-04-03T00:10:20.531Z,101320.25
2023-04-03T00:12:47.006Z,101319.19
2023-04-03T00:15:13.539Z,101315.53
2023-04-03T00:17:40.405Z,101322.66
2023-04-03T00:20:07.476Z,101323.59
2023-04-03T00:22:33.836Z,101319.28
2023-04-03T00:25:00.335Z,101322.09
2023-04-03T00:27:26.951Z,101320.19
2023-04-03T00:29:53.373Z,101313.94
2023-04-03T00:32:19.838Z,101320.34
2023-04-03T00:34:46.213Z,101311.41
2023-04-03T00:37:12.770Z,101314.28
2023-04-03T00:39:39.220Z,101322.19
2023-04-03T00:42:05.939Z,101320.44
2023-04-03T00:44:35.056Z,101314.28
2023-04-03T00:47:03.458Z,101312.34
2023-04-03T00:49:30.386Z,101312.53
2023-04-03T00:51:58.778Z,101315.97
2023-04-03T00:54:27.093Z,101314.28
2023-04-03T00:56:56.488Z,101315.00
2023-04-03T00:59:28.006Z,101310.50
2023-04-03T01:02:00.147Z,101311.28
2023-04-03T01:04:36.765Z,101311.38
2023-04-03T01:07:07.162Z,101300.72
2023-04-03T01:09:34.581Z,101311.38
2023-04-03T01:12:24.647Z,101316.66
2023-04-03T01:14:57.645Z,101306.97
2023-04-03T01:17:54.413Z,101311.47
2023-04-03T01:20:32.772Z,101310.53
2023-04-03T01:23:24.023Z,101315.81
2023-04-03T01:25:54.210Z,101305.22
2023-04-03T01:28:27.306Z,101303.47
2023-04-03T01:31:25.892Z,101304.34
2023-04-03T01:33:53.264Z,101300.81
2023-04-03T01:36:26.714Z,101300.81
2023-04-03T01:38:54.422Z,101301.72
2023-04-03T01:41:22.056Z,101294.78
2023-04-03T01:43:49.753Z,101304.34
2023-04-03T01:46:17.876Z,101300.81
2023-04-03T01:48:44.575Z,101303.34
2023-04-03T01:51:11.563Z,101304.25
2023-04-03T01:53:37.998Z,101304.25
2023-04-03T01:56:05.027Z,101307.72
2023-04-03T01:58:31.758Z,101312.94
2023-04-03T02:00:58.265Z,101309.38
2023-04-03T02:03:24.759Z,101308.78
2023-04-03T02:05:51.151Z,101306.00
2023-04-03T02:08:18.943Z,101313.13
2023-04-03T02:10:48.321Z,101307.63
2023-04-03T02:13:14.704Z,101309.38
2023-04-03T02:15:41.586Z,101316.44
2023-04-03T02:18:08.677Z,101303.25
2023-04-03T02:20:35.547Z,101303.25
2023-04-03T02:23:02.536Z,101300.47
2023-04-03T02:25:29.372Z,101298.66
2023-04-03T02:27:55.708Z,101289.97
2023-04-03T02:30:22.089Z,101296.00
2023-04-03T02:32:48.511Z,101310.13
2023-04-03T02:35:15.017Z,101292.50
2023-04-03T02:37:41.616Z,101296.72
2023-04-03T02:40:09.611Z,101293.34
2023-04-03T02:42:36.234Z,101291.72
2023-04-03T02:45:02.709Z,101296.19
2023-04-03T02:47:29.151Z,101300.56
2023-04-03T02:49:55.754Z,101296.09
2023-04-03T02:52:22.355Z,101297.75
2023-04-03T02:54:48.972Z,101296.69
2023-04-03T02:57:16.078Z,101305.66
2023-04-03T02:59:42.590Z,101301.16
2023-04-03T03:02:09.958Z,101295.06
2023-04-03T03:04:36.878Z,101307.44
2023-04-03T03:07:04.114Z,101304.56
2023-04-03T03:09:30.949Z,101306.38
2023-04-03T03:11:57.976Z,101310.78
2023-04-03T03:14:24.649Z,101308.94
2023-04-03T03:16:51.103Z,101312.41
2023-04-03T03:19:17.505Z,101315.16
2023-04-03T03:21:43.879Z,101313.41
2023-04-03T03:24:10.337Z,101315.97
2023-04-03T03:26:36.756Z,101310.66
2023-04-03T03:29:03.545Z,101310.66
2023-04-03T03:31:30.079Z,101308.94
2023-04-03T03:33:56.514Z,101310.69
2023-04-03T03:36:23.069Z,101311.72
2023-04-03T03:38:49.484Z,101311.75
2023-04-03T03:41:15.958Z,101310.97
2023-04-03T03:43:42.754Z,101309.28
2023-04-03T03:46:09.198Z,101311.66
2023-04-03T03:48:35.661Z,101308.81
2023-04-03T03:51:02.054Z,101305.38
2023-04-03T03:53:28.431Z,101315.03
2023-04-03T03:55:54.800Z,101313.25
2023-04-03T03:58:21.180Z,101309.63
2023-04-03T04:00:47.901Z,101315.09
2023-04-03T04:03:14.358Z,101311.41
2023-04-03T04:05:40.815Z,101299.09
2023-04-03T04:08:07.240Z,101305.22
2023-04-03T04:10:34.635Z,101305.25
2023-04-03T04:13:01.159Z,101314.22
2023-04-03T04:15:27.963Z,101313.19
2023-04-03T04:17:54.583Z,101306.41
2023-04-03T04:20:21.663Z,101309.66
2023-04-03T04:22:48.036Z,101313.47
2023-04-03T04:25:14.551Z,101305.66
2023-04-03T04:27:40.908Z,101312.56
2023-04-03T04:30:07.898Z,101316.81
2023-04-03T04:32:34.480Z,101318.47
2023-04-03T04:35:01.361Z,101322.53
2023-04-03T04:37:27.931Z,101321.91
2023-04-03T04:39:54.322Z,101312.31
2023-04-03T04:42:20.760Z,101318.47
2023-04-03T04:44:47.109Z,101320.59
2023-04-03T04:47:13.585Z,101328.47
2023-04-03T04:49:39.984Z,101323.34
2023-04-03T04:52:07.204Z,101315.53
2023-04-03T04:54:33.781Z,101312.00
2023-04-03T04:57:00.516Z,101326.00
2023-04-03T04:59:26.894Z,101316.47
2023-04-03T05:01:53.318Z,101330.38
2023-04-03T05:04:19.780Z,101330.13
2023-04-03T05:06:46.219Z,101333.78
2023-04-03T05:09:13.245Z,101331.97
2023-04-03T05:11:39.712Z,101341.47
2023-04-03T05:14:09.127Z,101340.75
2023-04-03T05:16:35.806Z,101338.47
2023-04-03T05:19:02.310Z,101340.09
2023-04-03T05:21:32.947Z,101345.41
2023-04-03T05:24:03.629Z,101349.78
2023-04-03T05:26:31.463Z,101353.94
2023-04-03T05:28:58.066Z,101356.72
2023-04-03T05:31:24.913Z,101363.59
2023-04-03T05:33:51.449Z,101362.66
2023-04-03T05:36:18.525Z,101356.56
2023-04-03T05:38:45.154Z,101366.75
2023-04-03T05:41:11.680Z,101366.91
2023-04-03T05:43:39.893Z,101367.84
2023-04-03T05:46:14.949Z,101376.66
2023-04-03T05:48:41.599Z,101378.47
2023-04-03T05:51:14.479Z,101378.38
2023-04-03T05:53:41.671Z,101381.13
2023-04-03T05:56:08.067Z,101377.38
2023-04-03T05:58:34.494Z,101376.75
2023-04-03T06:01:01.508Z,101383.59
2023-04-03T06:03:28.092Z,101391.25
2023-04-03T06:05:54.631Z,101389.69
2023-04-03T06:08:21.542Z,101381.81
2023-04-03T06:10:48.808Z,101391.91
2023-04-03T06:13:15.257Z,101382.03
2023-04-03T06:15:41.682Z,101386.53
2023-04-03T06:18:08.188Z,101387.38
2023-04-03T06:20:34.659Z,101386.75
2023-04-03T06:23:01.192Z,101395.81
2023-04-03T06:25:27.633Z,101405.28
2023-04-03T06:27:56.453Z,101405.28
2023-04-03T06:30:22.871Z,101407.94
2023-04-03T06:32:49.438Z,101410.41
2023-04-03T06:35:15.910Z,101413.09
2023-04-03T06:37:42.318Z,101401.09
2023-04-03T06:40:22.413Z,101410.97
2023-04-03T06:42:48.827Z,101414.50
2023-04-03T06:45:15.630Z,101410.34
2023-04-03T06:47:42.206Z,101417.38
2023-04-03T06:50:12.286Z,101421.06
2023-04-03T06:52:40.728Z,101412.19
2023-04-03T06:55:08.289Z,101421.91
2023-04-03T06:57:34.839Z,101421.31
2023-04-03T07:00:01.436Z,101422.00
2023-04-03T07:04:54.494Z,101438.50
2023-04-03T07:07:21.061Z,101449.63
2023-04-03T07:09:48.928Z,101428.88
2023-04-03T07:12:16.014Z,101452.69
2023-04-03T07:14:42.468Z,101436.88
2023-04-03T07:17:08.958Z,101440.53
2023-04-03T07:19:35.546Z,101443.16
2023-04-03T07:22:01.972Z,101457.50
2023-04-03T07:24:28.540Z,101458.53
2023-04-03T07:26:55.115Z,101456.44
2023-04-03T07:29:22.445Z,101453.13
2023-04-03T07:31:48.971Z,101459.28
2023-04-03T07:34:15.796Z,101453.34
2023-04-03T07:36:42.289Z,101455.25
2023-04-03T07:39:09.136Z,101451.97
2023-04-03T07:41:35.702Z,101457.28
2023-04-03T07:44:02.146Z,101458.09
2023-04-03T07:46:28.772Z,101456.53
2023-04-03T07:48:56.713Z,101453.69
2023-04-03T07:51:25.597Z,101455.34
2023-04-03T07:53:51.986Z,101456.53
2023-04-03T07:56:18.381Z,101462.78
2023-04-03T07:58:44.775Z,101442.41
2023-04-03T08:01:11.186Z,101467.13
2023-04-03T08:03:38.642Z,101455.03
2023-04-03T08:06:11.758Z,101459.41
2023-04-03T08:08:42.314Z,101468.19
2023-04-03T08:11:09.356Z,101484.00
2023-04-03T08:13:36.639Z,101461.91
2023-04-03T08:16:10.481Z,101462.03
2023-04-03T08:18:36.932Z,101455.88
2023-04-03T08:21:06.858Z,101471.69
2023-04-03T08:23:33.280Z,101467.28
2023-04-03T08:25:59.671Z,101459.53
2023-04-03T08:28:26.202Z,101466.56
2023-04-03T08:30:52.642Z,101465.75
2023-04-03T08:33:19.051Z,101464.91
2023-04-03T08:35:45.557Z,101460.53
2023-04-03T08:38:11.984Z,101472.69
2023-04-03T08:40:39.239Z,101464.75
2023-04-03T08:43:30.501Z,101475.19
2023-04-03T08:46:02.075Z,101472.97
2023-04-03T08:48:42.386Z,101478.22
2023-04-03T08:51:16.397Z,101472.97
2023-04-03T08:54:05.332Z,101481.59
2023-04-03T08:56:34.430Z,101481.69
2023-04-03T08:59:06.365Z,101479.09
2023-04-03T09:01:40.458Z,101489.53
2023-04-03T09:04:14.012Z,101478.88
2023-04-03T09:06:43.631Z,101485.22
2023-04-03T09:09:19.218Z,101485.25
2023-04-03T09:12:10.282Z,101479.22
2023-04-03T09:14:40.153Z,101482.50
2023-04-03T09:17:36.884Z,101481.00
2023-04-03T09:20:20.353Z,101481.84
2023-04-03T09:22:52.176Z,101469.59
2023-04-03T09:25:32.185Z,101479.25
2023-04-03T09:28:00.013Z,101478.34
2023-04-03T09:30:27.228Z,101476.72
2023-04-03T09:32:57.286Z,101475.00
2023-04-03T09:35:44.979Z,101473.28
2023-04-03T09:38:14.824Z,101480.34
2023-04-03T09:40:43.646Z,101483.06
2023-04-03T09:43:39.985Z,101468.00
2023-04-03T09:46:26.392Z,101464.47
2023-04-03T09:49:08.174Z,101483.00
2023-04-03T09:51:35.298Z,101473.31
2023-04-03T09:54:27.082Z,101465.31
2023-04-03T09:56:56.598Z,101459.28
2023-04-03T09:59:23.463Z,101481.25
2023-04-03T10:02:02.962Z,101462.72
2023-04-03T10:04:40.434Z,101466.34
2023-04-03T10:07:37.641Z,101476.03
2023-04-03T10:10:16.219Z,101482.91
2023-04-03T10:12:42.655Z,101477.38
2023-04-03T10:15:14.745Z,101469.56
2023-04-03T10:17:47.338Z,101470.69
2023-04-03T10:20:21.690Z,101471.53
2023-04-03T10:23:05.303Z,101477.78
2023-04-03T10:25:55.950Z,101476.97
2023-04-03T10:28:33.662Z,101473.38
2023-04-03T10:31:02.993Z,101469.78
2023-04-03T10:33:35.364Z,101472.38
2023-04-03T10:36:13.327Z,101462.75
2023-04-03T10:39:01.412Z,101469.81
2023-04-03T10:42:16.770Z,101470.69
2023-04-03T10:45:19.972Z,101465.31
2023-04-03T10:47:55.852Z,101468.84
2023-04-03T10:50:53.172Z,101467.13
2023-04-03T10:53:37.260Z,101469.69
2023-04-03T10:56:26.219Z,101462.75
2023-04-03T10:59:02.172Z,101462.75
2023-04-03T11:01:36.284Z,101469.88
2023-04-03T11:04:07.045Z,101452.25
2023-04-03T11:06:50.426Z,101452.22
2023-04-03T11:09:20.693Z,101464.56
2023-04-03T11:11:50.135Z,101455.69
2023-04-03T11:14:29.115Z,101454.78
2023-04-03T11:17:06.370Z,101455.69
2023-04-03T11:20:01.520Z,101456.63
2023-04-03T11:22:38.583Z,101442.50
2023-04-03T11:25:20.953Z,101435.47
2023-04-03T11:28:06.326Z,101425.78
2023-04-03T11:31:10.505Z,101434.56
2023-04-03T11:34:07.574Z,101435.47
2023-04-03T11:36:42.184Z,101422.22
2023-04-03T11:39:22.533Z,101441.66
2023-04-03T11:41:49.144Z,101424.84
2023-04-03T11:44:38.657Z,101414.28
2023-04-03T11:47:11.286Z,101424.00
2023-04-03T11:50:02.091Z,101431.94
2023-04-03T11:52:43.723Z,101435.47
2023-04-03T11:55:22.778Z,101421.34
2023-04-03T11:57:58.305Z,101443.41
2023-04-03T12:00:53.042Z,101425.78
2023-04-03T12:03:28.766Z,101418.69
2023-04-03T12:06:07.156Z,101406.31
2023-04-03T12:08:33.488Z,101418.63
2023-04-03T12:11:15.489Z,101399.25
2023-04-03T12:13:53.738Z,101408.84
2023-04-03T12:16:31.300Z,101407.13
2023-04-03T12:19:04.400Z,101395.66
2023-04-03T12:21:30.767Z,101395.72
2023-04-03T12:24:11.654Z,101392.22
2023-04-03T12:27:05.831Z,101401.03
2023-04-03T12:29:33.095Z,101388.63
2023-04-03T12:32:18.141Z,101395.69
2023-04-03T12:34:50.323Z,101384.16
2023-04-03T12:37:54.478Z,101390.38
2023-04-03T12:40:42.685Z,101384.25
2023-04-03T12:43:23.886Z,101376.31
2023-04-03T12:46:03.126Z,101368.28
2023-04-03T12:48:34.577Z,101377.06
2023-04-03T12:51:01.731Z,101377.91
2023-04-03T12:53:37.418Z,101368.28
2023-04-03T12:56:24.319Z,101381.47
2023-04-03T12:58:52.137Z,101364.75
2023-04-03T13:01:22.797Z,101375.34
2023-04-03T13:03:53.475Z,101374.53
2023-04-03T13:06:25.010Z,101368.22
2023-04-03T13:08:58.039Z,101367.31
2023-04-03T13:11:31.556Z,101365.56
2023-04-03T13:14:04.465Z,101348.72
2023-04-03T13:16:30.875Z,101367.19
2023-04-03T13:18:57.287Z,101388.59
2023-04-03T13:21:27.553Z,101358.66
2023-04-03T13:24:11.523Z,101355.06
2023-04-03T13:26:43.150Z,101355.09
2023-04-03T13:29:29.934Z,101369.13
2023-04-03T13:31:58.927Z,101355.91
2023-04-03T13:34:28.811Z,101345.16
2023-04-03T13:36:55.331Z,101347.72
2023-04-03T13:39:31.218Z,101355.09
2023-04-03T13:42:02.323Z,101350.59
2023-04-03T13:44:31.440Z,101343.28
2023-04-03T13:47:23.072Z,101352.28
2023-04-03T13:50:14.845Z,101350.56
2023-04-03T13:52:49.466Z,101340.56
2023-04-03T13:55:27.391Z,101349.56
2023-04-03T13:58:03.348Z,101344.16
2023-04-03T14:00:35.579Z,101359.31
2023-04-03T14:03:02.107Z,101330.94
2023-04-03T14:05:28.820Z,101329.16
2023-04-03T14:07:56.317Z,101333.63
2023-04-03T14:10:22.903Z,101336.19
2023-04-03T14:12:51.587Z,101316.84
2023-04-03T14:15:20.667Z,101325.72
2023-04-03T14:17:47.122Z,101323.84
2023-04-03T14:20:19.490Z,101319.25
2023-04-03T14:22:46.100Z,101331.06
2023-04-03T14:25:12.699Z,101321.41
2023-04-03T14:27:44.666Z,101310.72
2023-04-03T14:30:20.273Z,101326.72
2023-04-03T14:32:47.933Z,101320.31
2023-04-03T14:35:15.713Z,101314.94
2023-04-03T14:37:42.852Z,101307.06
2023-04-03T14:40:12.917Z,101311.50
2023-04-03T14:42:39.395Z,101297.28
2023-04-03T14:45:09.446Z,101300.75
2023-04-03T14:47:41.893Z,101314.25
2023-04-03T14:50:09.045Z,101319.56
2023-04-03T14:52:36.926Z,101307.22
2023-04-03T14:55:06.724Z,101306.28
2023-04-03T14:57:34.187Z,101309.69
2023-04-03T15:00:02.091Z,101311.53
2023-04-03T15:02:37.459Z,101297.38
2023-04-03T15:05:07.476Z,101309.00
2023-04-03T15:07:37.263Z,101295.66
2023-04-03T15:10:21.910Z,101298.22
2023-04-03T15:12:49.330Z,101299.13
2023-04-03T15:15:18.113Z,101301.69
2023-04-03T15:17:46.046Z,101296.53
2023-04-03T15:20:18.255Z,101302.00
2023-04-03T15:22:44.780Z,101298.38
2023-04-03T15:25:11.219Z,101297.53
2023-04-03T15:27:38.664Z,101302.78
2023-04-03T15:30:08.907Z,101303.63
2023-04-03T15:32:36.157Z,101315.97
2023-04-03T15:35:03.050Z,101301.16
2023-04-03T15:37:29.505Z,101294.81
2023-04-03T15:39:56.171Z,101302.72
2023-04-03T15:42:22.591Z,101297.59
2023-04-03T15:44:48.981Z,101302.84
2023-04-03T15:47:15.721Z,101293.97
2023-04-03T15:49:42.253Z,101294.88
2023-04-03T15:52:08.734Z,101296.66
2023-04-03T15:54:35.358Z,101298.47
2023-04-03T15:57:02.033Z,101311.75
2023-04-03T15:59:30.673Z,101308.25
2023-04-03T16:01:58.009Z,101300.22
2023-04-03T16:04:24.484Z,101302.91
2023-04-03T16:06:51.244Z,101301.94
2023-04-03T16:09:17.934Z,101302.03
2023-04-03T16:11:44.448Z,101292.28
2023-04-03T16:14:10.967Z,101296.72
2023-04-03T16:16:38.105Z,101298.56
2023-04-03T16:19:05.947Z,101293.25
2023-04-03T16:21:34.078Z,101302.97
2023-04-03T16:24:01.452Z,101298.53
2023-04-03T16:26:27.925Z,101293.22
2023-04-03T16:28:54.617Z,101297.69
2023-04-03T16:31:22.597Z,101295.91
2023-04-03T16:33:49.234Z,101300.34
2023-04-03T16:36:15.637Z,101294.19
2023-04-03T16:38:42.102Z,101285.34
2023-04-03T16:41:08.512Z,101289.69
2023-04-03T16:43:36.494Z,101284.47
2023-04-03T16:46:03.465Z,101290.69
2023-04-03T16:48:30.958Z,101287.16
2023-04-03T16:50:57.363Z,101294.22
2023-04-03T16:53:25.663Z,101292.47
2023-04-03T16:55:52.352Z,101290.69
2023-04-03T16:58:19.850Z,101282.75
2023-04-03T17:00:48.282Z,101286.31
2023-04-03T17:03:14.849Z,101291.63
2023-04-03T17:05:41.576Z,101297.78
2023-04-03T17:08:08.207Z,101289.84
2023-04-03T17:10:36.266Z,101287.16
2023-04-03T17:13:02.880Z,101293.38
2023-04-03T17:15:29.283Z,101289.88
2023-04-03T17:17:55.802Z,101300.47
2023-04-03T17:20:22.441Z,101296.94
2023-04-03T17:22:48.905Z,101297.81
2023-04-03T17:25:15.706Z,101301.34
2023-04-03T17:27:42.277Z,101296.97
2023-04-03T17:30:09.232Z,101299.59
2023-04-03T17:32:35.753Z,101302.25
2023-04-03T17:35:02.203Z,101300.50
2023-04-03T17:37:28.650Z,101302.22
2023-04-03T17:39:55.069Z,101308.41
2023-04-03T17:42:21.509Z,101311.03
2023-04-03T17:44:47.995Z,101316.31
2023-04-03T17:47:14.518Z,101311.88
2023-04-03T17:49:40.925Z,101311.88
2023-04-03T17:52:07.378Z,101324.19
2023-04-03T17:54:33.723Z,101327.69
2023-04-03T17:57:00.244Z,101329.47
2023-04-03T17:59:26.763Z,101322.38
2023-04-03T18:01:53.397Z,101342.63
2023-04-03T18:04:19.919Z,101329.38
2023-04-03T18:06:49.893Z,101322.31
2023-04-03T18:09:27.065Z,101324.06
2023-04-03T18:11:53.965Z,101328.41
2023-04-03T18:14:23.725Z,101323.13
2023-04-03T18:16:50.265Z,101323.06
2023-04-03T18:21:47.665Z,101341.41
2023-04-03T18:24:17.316Z,101342.34
2023-04-03T18:26:50.896Z,101336.97
2023-04-03T18:29:17.551Z,101337.84
2023-04-03T18:31:48.267Z,101337.00
2023-04-03T18:34:14.731Z,101334.34
2023-04-03T18:36:41.733Z,101337.88
2023-04-03T18:39:08.297Z,101344.81
2023-04-03T18:41:36.544Z,101347.44
2023-04-03T18:44:06.824Z,101342.91
2023-04-03T18:46:34.064Z,101342.78
2023-04-03T18:49:00.722Z,101351.69
2023-04-03T18:51:27.523Z,101356.03
2023-04-03T18:53:54.003Z,101355.34
2023-04-03T18:56:20.423Z,101355.13
2023-04-03T18:58:47.184Z,101349.88
2023-04-03T19:01:14.776Z,101358.56
2023-04-03T19:03:41.700Z,101362.13
2023-04-03T19:06:08.511Z,101369.16
2023-04-03T19:08:35.337Z,101371.72
2023-04-03T19:11:01.847Z,101375.19
2023-04-03T19:13:28.299Z,101374.97
2023-04-03T19:15:58.657Z,101376.81
2023-04-03T19:18:26.664Z,101380.31
2023-04-03T19:20:56.150Z,101373.34
2023-04-03T19:23:23.557Z,101373.22
2023-04-03T19:26:01.753Z,101380.16
2023-04-03T19:28:28.719Z,101384.44
2023-04-03T19:30:56.235Z,101383.75
2023-04-03T19:33:22.687Z,101387.25
2023-04-03T19:35:49.090Z,101388.00
2023-04-03T19:38:15.705Z,101387.13
2023-04-03T19:40:43.851Z,101384.34
2023-04-03T19:43:14.369Z,101394.91
2023-04-03T19:45:41.614Z,101385.19
2023-04-03T19:48:08.494Z,101393.16
2023-04-03T19:50:35.745Z,101394.81
2023-04-03T19:53:02.544Z,101394.81
2023-04-03T19:55:31.729Z,101384.16
2023-04-03T19:58:02.361Z,101394.53
2023-04-03T20:00:30.374Z,101403.41
2023-04-03T20:02:57.401Z,101401.56
2023-04-03T20:05:24.588Z,101394.66
2023-04-03T20:07:51.020Z,101397.28
2023-04-03T20:10:17.679Z,101389.19
2023-04-03T20:12:44.730Z,101393.47
2023-04-03T20:15:11.603Z,101389.94
2023-04-03T20:17:38.171Z,101391.53
2023-04-03T20:20:05.830Z,101392.41
2023-04-03T20:22:33.023Z,101396.75
2023-04-03T20:25:05.940Z,101392.34
2023-04-03T20:27:33.738Z,101395.13
2023-04-03T20:30:03.036Z,101399.47
2023-04-03T20:32:30.336Z,101402.00
2023-04-03T20:35:03.002Z,101406.03
2023-04-03T20:37:30.855Z,101399.25
2023-04-03T20:39:57.255Z,101394.59
2023-04-03T20:42:23.622Z,101395.41
2023-04-03T20:44:49.988Z,101405.38
2023-04-03T20:47:16.471Z,101401.41
2023-04-03T20:49:46.183Z,101394.44
2023-04-03T20:52:12.615Z,101398.59
2023-04-03T20:54:40.025Z,101397.94
2023-04-03T20:57:06.552Z,101403.34
2023-04-03T20:59:34.143Z,101395.00
2023-04-03T21:02:00.663Z,101401.25
2023-04-03T21:04:41.401Z,101394.34
2023-04-03T21:07:46.277Z,101397.88
2023-04-03T21:10:49.871Z,101393.78
2023-04-03T21:13:54.671Z,101399.19
2023-04-03T21:16:21.537Z,101392.25
2023-04-03T21:19:01.878Z,101394.81
2023-04-03T21:21:28.578Z,101399.91
2023-04-03T21:23:55.960Z,101403.56
2023-04-03T21:26:25.327Z,101401.66
2023-04-03T21:28:52.395Z,101393.72
2023-04-03T21:31:21.196Z,101391.16
2023-04-03T21:33:47.746Z,101401.63
2023-04-03T21:36:15.190Z,101401.75
2023-04-03T21:38:42.084Z,101400.66
2023-04-03T21:41:08.476Z,101392.56
2023-04-03T21:43:34.918Z,101403.78
2023-04-03T21:46:01.877Z,101397.09
2023-04-03T21:48:30.453Z,101401.31
2023-04-03T21:51:06.672Z,101393.03
2023-04-03T21:53:33.871Z,101402.41
2023-04-03T21:56:02.149Z,101404.31
2023-04-03T21:58:32.549Z,101399.59
2023-04-03T22:01:09.899Z,101399.22
2023-04-03T22:03:36.897Z,101391.31
2023-04-03T22:06:03.801Z,101396.59
2023-04-03T22:08:30.339Z,101395.41
2023-04-03T22:11:04.617Z,101390.16
2023-04-03T22:13:31.349Z,101397.44
2023-04-03T22:15:59.345Z,101387.09
2023-04-03T22:18:26.295Z,101391.13
2023-04-03T22:20:52.702Z,101393.03
2023-04-03T22:23:19.334Z,101386.22
2023-04-03T22:26:02.715Z,101387.78
2023-04-03T22:28:30.980Z,101394.47
2023-04-03T22:31:00.336Z,101391.72
2023-04-03T22:33:27.138Z,101391.63
2023-04-03T22:35:53.554Z,101391.59
2023-04-03T22:38:19.930Z,101385.47
2023-04-03T22:40:46.346Z,101386.81
2023-04-03T22:43:13.290Z,101392.84
2023-04-03T22:45:50.236Z,101383.56
2023-04-03T22:48:17.523Z,101388.97
2023-04-03T22:50:44.275Z,101386.63
2023-04-03T22:53:11.084Z,101392.66
2023-04-03T22:55:38.182Z,101389.59
2023-04-03T22:58:05.670Z,101387.66
2023-04-03T23:00:32.825Z,101395.28
2023-04-03T23:02:59.758Z,101401.63
2023-04-03T23:05:26.478Z,101394.31
2023-04-03T23:07:52.895Z,101395.22
2023-04-03T23:10:19.526Z,101397.78
2023-04-03T23:12:45.865Z,101391.31
2023-04-03T23:15:14.494Z,101395.63
2023-04-03T23:17:40.959Z,101405.28
2023-04-03T23:20:07.779Z,101394.03
2023-04-03T23:22:34.211Z,101396.75
2023-04-03T23:25:00.614Z,101397.22
2023-04-03T23:27:26.954Z,101397.56
2023-04-03T23:29:53.617Z,101397.06
2023-04-03T23:32:20.194Z,101391.78
2023-04-03T23:34:46.815Z,101406.22
2023-04-03T23:37:13.233Z,101409.19
2023-04-03T23:39:39.655Z,101408.44
2023-04-03T23:42:09.094Z,101393.13
2023-04-03T23:44:35.697Z,101397.53
2023-04-03T23:47:02.196Z,101394.50
2023-04-03T23:49:28.840Z,101399.63
2023-04-03T23:51:56.869Z,101398.44
2023-04-03T23:54:23.439Z,101392.00
2023-04-03T23:56:49.802Z,101394.38
2023-04-03T23:59:16.369Z,101383.75
